Nearby METAR Reports

 

KAGC - Pittsburgh/Alleg, Pennsylvania, USA
Distance from station: N 14mi, 23km
Updated: Tue, Nov-19-2019 2:53pm EST
Haze, Overcast
Haze, Overcast
 Wind from calm
Wind: Calm
Temperature: 43°F , 6°C
Dew Point: 36°F , 2°C
Humidity: 76%
Barometer: 29.81 inHg , 1009.5 hPa
Summary: Haze
Clouds: Overcast
Visibility: 3 miles , 5 km
Cloud details: Overcast 1700 ft
2019/11/19 19:53 KAGC 191953Z 00000KT 3SM HZ OVC017 06/02 A2981 RMK AO2 SLP108 T00560017
KAFJ - Washington, Pennsylvania, USA
Distance from station: W 17mi, 28km
Updated: Tue, Nov-19-2019 2:56pm EST
Overcast
Overcast
 Wind from W
Wind: W 5 mph , 7 km/h
Temperature: 43°F , 6°C
Wind Chill: 40°F , 4°C
Dew Point: 36°F , 2°C
Humidity: 76%
Barometer: 29.85 inHg , 1010.8 hPa
Clouds: Overcast
Visibility: 10 miles , 16 km
Cloud details: Overcast 2200 ft
2019/11/19 19:56 KAFJ 191956Z AUTO 27004KT 10SM OVC022 06/02 A2985 RMK AO2 SLP115 T00560022 PWINO
 
KLBE - Latrobe, Pennsylvania, USA
Distance from station: ENE 30mi, 48km
Updated: Tue, Nov-19-2019 2:50pm EST
Haze, Overcast
Haze, Overcast
 Wind from SW
Wind: SW 9 mph , 15 km/h
Temperature: 43°F , 6°C
Wind Chill: 38°F , 3°C
Dew Point: 36°F , 2°C
Humidity: 76%
Barometer: 29.82 inHg , 1009.8 hPa
Summary: Haze
Clouds: Overcast
Visibility: 4 miles , 6 km
Cloud details: Overcast 3000 ft
2019/11/19 19:50 KLBE 191950Z 23008KT 4SM HZ OVC030 06/02 A2982
KPIT - Pittsburgh, Pennsylvania, USA
Distance from station: NW 30mi, 48km
Updated: Tue, Nov-19-2019 3:17pm EST
Haze, Overcast
Haze, Overcast
 Wind from calm
Wind: Calm
Temperature: 41°F , 5°C
Dew Point: 36°F , 2°C
Humidity: 81%
Barometer: 29.82 inHg , 1009.8 hPa
Summary: Haze
Clouds: Overcast
Visibility: 2 1/2 miles , 4 km
Cloud details: Partly cloudy 1200 ft
Overcast 1700 ft
2019/11/19 20:17 KPIT 192017Z 00000KT 2 1/2SM HZ SCT012 OVC017 05/02 A2982 RMK AO2 T00500017
 
KMGW - Morgantown, West Virginia, USA
Distance from station: S 34mi, 55km
Updated: Tue, Nov-19-2019 2:53pm EST
Overcast
Overcast
 Wind from calm
Wind: Calm
Temperature: 43°F , 6°C
Dew Point: 36°F , 2°C
Humidity: 76%
Barometer: 29.83 inHg , 1010.2 hPa
Clouds: Overcast
Visibility: 7 miles , 11 km
Cloud details: Partly cloudy 3100 ft
Overcast 4400 ft
2019/11/19 19:53 KMGW 191953Z 00000KT 7SM SCT031 OVC044 06/02 A2983 RMK AO2 SLP107 HAZY T00610022
KHLG - Wheeling, West Virginia, USA
Distance from station: W 37mi, 60km
Updated: Tue, Nov-19-2019 2:53pm EST
Overcast
Overcast
 Wind from W
Wind: W 7 mph , 11 km/h
Temperature: 43°F , 6°C
Wind Chill: 39°F , 4°C
Dew Point: 34°F , 1°C
Humidity: 71%
Barometer: 29.82 inHg , 1009.8 hPa
Clouds: Overcast
Visibility: 8 miles , 13 km
Cloud details: Overcast 2200 ft
2019/11/19 19:53 KHLG 191953Z 26006KT 8SM OVC022 06/01 A2982 RMK AO2 SLP108 T00560011
 
KBTP - Butler Co., Pennsylvania, USA
Distance from station: N 43mi, 69km
Updated: Tue, Nov-19-2019 3:25pm EST
Mist, Overcast
Mist, Overcast
 Wind from calm
Wind: Calm
Temperature: 37°F , 3°C
Dew Point: 36°F , 2°C
Humidity: 93%
Barometer: 29.84 inHg , 1010.5 hPa
Summary: Mist
Clouds: Overcast
Visibility: 3/4 mile , 1.2 km
Cloud details: Mostly cloudy 400 ft
Overcast 800 ft
2019/11/19 20:25 KBTP 192025Z AUTO 00000KT 3/4SM BR BKN004 OVC008 03/02 A2984 RMK AO2 RAB1957E20 CIG 003V006 P0000 RVRNO
KBVI - Beaver Falls Arp, Pennsylvania, USA
Distance from station: NNW 49mi, 79km
Updated: Tue, Nov-19-2019 3:35pm EST
Mist, Overcast
Mist, Overcast
 Wind from calm
Wind: Calm
Temperature: 39°F , 4°C
Dew Point: 37°F , 3°C
Humidity: 93%
Barometer: 29.83 inHg , 1010.2 hPa
Summary: Mist
Clouds: Overcast
Visibility: 1 1/2 miles , 2.4 km
Cloud details: Overcast 400 ft
2019/11/19 20:35 KBVI 192035Z AUTO 00000KT 1 1/2SM BR OVC004 04/03 A2983 RMK AO2 T00400026
 
K2G4 - Garrett Co, Maryland, USA
Distance from station: SE 51mi, 82km
Updated: Tue, Nov-19-2019 3:35pm EST
Overcast
Overcast
 Wind from W
Wind: W 3 mph , 6 km/h
Temperature: 36°F , 2°C
Dew Point: 32°F , 0°C
Humidity: 87%
Barometer: 29.78 inHg , 1008.5 hPa
Clouds: Overcast
Visibility: 10 miles , 16 km
Cloud details: Partly cloudy 1200 ft
Mostly cloudy 1800 ft
Overcast 2200 ft
2019/11/19 20:35 K2G4 192035Z AUTO 26003KT 10SM SCT012 BKN018 OVC022 02/00 A2978 RMK AO1
KIDI - Indiana/Stewart, Pennsylvania, USA
Distance from station: NE 56mi, 90km
Updated: Tue, Nov-19-2019 3:35pm EST
Overcast
Overcast
 Wind from WNW
Wind: WNW 6 mph , 9 km/h
Temperature: 43°F , 6°C
Wind Chill: 39°F , 4°C
Dew Point: 34°F , 1°C
Humidity: 71%
Barometer: 29.86 inHg , 1011.2 hPa
Clouds: Overcast
Visibility: 7 miles , 11 km
Cloud details: Overcast 2400 ft
2019/11/19 20:35 KIDI 192035Z AUTO 29005KT 7SM OVC024 06/01 A2986 RMK A01
 
KJST - Johnstown, Pennsylvania, USA
Distance from station: ENE 60mi, 96km
Updated: Tue, Nov-19-2019 2:54pm EST
Haze, Overcast
Haze, Overcast
 Wind from WSW
Wind: WSW 8 mph , 13 km/h
Temperature: 41°F , 5°C
Wind Chill: 36°F , 2°C
Dew Point: 30°F , -1°C
Humidity: 66%
Barometer: 29.77 inHg , 1008.1 hPa
Summary: Haze
Clouds: Overcast
Visibility: 6 miles , 10 km
Cloud details: Mostly cloudy 2000 ft
Overcast 2800 ft
2019/11/19 19:54 KJST 191954Z AUTO 25007KT 6SM HZ BKN020 OVC028 05/M01 A2977 RMK AO2 SLP098 T00501006
KCBE - Cumberland Reg, Maryland, USA
Distance from station: ESE 72mi, 116km
Updated: Tue, Nov-19-2019 3:30pm EST
Overcast
Overcast
 Wind from WNW
Wind: WNW 5 mph , 7 km/h
Temperature: 48°F , 9°C
Wind Chill: 46°F , 8°C
Dew Point: 32°F , 0°C
Humidity: 54%
Barometer: 29.85 inHg , 1010.8 hPa
Clouds: Overcast
Visibility: 10 miles , 16 km
Cloud details: Overcast 5000 ft
2019/11/19 20:30 KCBE 192030Z AUTO 29004KT 10SM OVC050 09/00 A2985 RMK AO2 T00950005
 
KILG - Wilmington, Delaware, USA
Distance from station: ESE 234mi, 377km
Updated: Tue, Nov-19-2019 2:51pm EST
Clear
Clear
 Wind from WNW
Wind: WNW 8 mph , 13 km/h
Temperature: 54°F , 12°C
Dew Point: 34°F , 1°C
Humidity: 47%
Barometer: 29.80 inHg , 1009.1 hPa
Clouds: Clear
Visibility: 9 miles , 14 km
2019/11/19 19:51 KILG 191951Z 29007KT 9SM CLR 12/01 A2980 RMK AO2 SLP089 T01220011 $
KTUS - Tucson, Arizona, USA
Distance from station: WSW 1806mi, 3283km
Updated: Tue, Nov-19-2019 3:31pm EST
Nearby thunderstorm, Rain, Mist, Overcast
Nearby thunderstorm, Rain, Mist, Overcast
 Wind from SW
Wind: SW 8 mph , 13 km/h
Temperature: 64°F , 18°C
Dew Point: 61°F , 16°C
Humidity: 88%
Barometer: 29.91 inHg , 1012.9 hPa
Summary: Nearby thunderstorm, Rain, Mist
Clouds: Overcast
Visibility: 2 1/2 miles , 4 km
Cloud details: Mostly cloudy 3500 ft
Mostly cloudy 5000 ft
Overcast 7500 ft
2019/11/19 20:31 KTUS 192031Z 23007KT 2 1/2SM VCTS RA BR BKN035 BKN050 OVC075 18/16 A2991 RMK AO2 PK WND 21035/2012 LTG DSNT ALQDS RAE1959B06 TSB03B15E31 OCNL LTG CG TS SE MOV NE P0025 T01780156 $